createdAt,value
2016-11-19T00:00:11.511Z,57.40
2016-11-19T00:01:12.520Z,57.30
2016-11-19T00:02:11.903Z,57.30
2016-11-19T00:03:12.979Z,57.30
2016-11-19T00:04:12.128Z,57.40
2016-11-19T00:05:13.130Z,57.40
2016-11-19T00:06:11.310Z,57.30
2016-11-19T00:07:12.295Z,57.30
2016-11-19T00:08:12.160Z,57.40
2016-11-19T00:09:12.809Z,57.40
2016-11-19T00:10:12.277Z,57.40
2016-11-19T00:11:12.261Z,57.30
2016-11-19T00:12:10.995Z,is
2016-11-19T00:13:12.121Z,57.30
2016-11-19T00:14:12.072Z,57.30
2016-11-19T00:15:12.748Z,57.40
2016-11-19T00:16:11.675Z,57.30
2016-11-19T00:17:11.800Z,57.40
2016-11-19T00:18:12.502Z,57.50
2016-11-19T00:19:11.676Z,57.40
2016-11-19T00:20:11.940Z,57.30
2016-11-19T00:21:11.977Z,57.30
2016-11-19T00:22:12.391Z,57.40
2016-11-19T00:23:11.472Z,57.30
2016-11-19T00:24:11.449Z,57.40
2016-11-19T00:25:13.255Z,57.70
2016-11-19T00:26:12.173Z,57.50
2016-11-19T00:27:12.268Z,57.40
2016-11-19T00:28:13.681Z,57.50
2016-11-19T00:29:10.455Z,is
2016-11-19T00:30:11.747Z,57.40
2016-11-19T00:31:12.279Z,57.60
2016-11-19T00:32:12.262Z,57.50
2016-11-19T00:33:13.070Z,57.40
2016-11-19T00:34:12.743Z,57.40
2016-11-19T00:35:11.854Z,57.30
2016-11-19T00:36:12.274Z,57.40
2016-11-19T00:37:12.892Z,57.50
2016-11-19T00:38:11.962Z,57.30
2016-11-19T00:39:12.763Z,57.40
2016-11-19T00:40:12.468Z,57.30
2016-11-19T00:41:10.281Z,is
2016-11-19T00:42:11.389Z,57.40
2016-11-19T00:43:11.421Z,57.30
2016-11-19T00:44:11.542Z,57.30
2016-11-19T00:45:13.150Z,56.90
2016-11-19T00:46:12.013Z,57.30
2016-11-19T00:47:11.948Z,57.30
2016-11-19T00:48:11.972Z,57.20
2016-11-19T00:49:12.414Z,57.30
2016-11-19T00:50:11.811Z,57.30
2016-11-19T00:51:11.937Z,57.20
2016-11-19T00:52:12.412Z,57.30
2016-11-19T00:53:12.303Z,57.30
2016-11-19T00:54:14.844Z,57.20
2016-11-19T00:55:12.315Z,57.20
2016-11-19T00:56:12.336Z,57.20
2016-11-19T00:57:12.329Z,57.20
2016-11-19T00:58:11.026Z,is
2016-11-19T00:59:11.318Z,57.20
2016-11-19T01:00:14.230Z,57.30
2016-11-19T01:01:13.065Z,57.40
2016-11-19T01:02:14.627Z,57.30
2016-11-19T01:03:12.826Z,57.30
2016-11-19T01:04:12.282Z,57.20
2016-11-19T01:05:12.193Z,57.30
2016-11-19T01:06:15.537Z,57.40
2016-11-19T01:07:11.997Z,57.30
2016-11-19T01:08:13.738Z,57.30
2016-11-19T01:09:14.199Z,57.20
2016-11-19T01:10:12.696Z,57.40
2016-11-19T01:11:11.787Z,57.30
2016-11-19T01:12:13.253Z,57.30
2016-11-19T01:13:14.184Z,57.30
2016-11-19T01:14:12.261Z,57.30
2016-11-19T01:15:12.783Z,57.40
2016-11-19T01:16:14.420Z,57.40
2016-11-19T01:17:12.362Z,57.40
2016-11-19T01:18:16.084Z,57.40
2016-11-19T01:19:15.646Z,57.30
2016-11-19T01:20:13.095Z,57.30
2016-11-19T01:21:09.813Z,is
2016-11-19T01:22:12.135Z,57.30
2016-11-19T01:23:15.692Z,57.40
2016-11-19T01:24:11.464Z,57.30
2016-11-19T01:25:13.875Z,57.50
2016-11-19T01:26:13.310Z,57.40
2016-11-19T01:27:13.376Z,57.50
2016-11-19T01:28:13.235Z,57.40
2016-11-19T01:29:14.010Z,57.40
2016-11-19T01:30:11.975Z,57.40
2016-11-19T01:31:13.487Z,57.20
2016-11-19T01:32:14.420Z,57.40
2016-11-19T01:33:13.385Z,57.40
2016-11-19T01:34:13.317Z,57.30
2016-11-19T01:35:13.078Z,57.40
2016-11-19T01:36:12.856Z,57.40
2016-11-19T01:37:12.291Z,57.40
2016-11-19T01:38:14.404Z,57.70
2016-11-19T01:39:11.565Z,57.60
2016-11-19T01:40:12.728Z,57.70
2016-11-19T01:41:21.464Z,57.90
2016-11-19T01:42:10.754Z,is
2016-11-19T01:43:15.128Z,57.90
2016-11-19T01:44:13.106Z,57.80
2016-11-19T01:45:13.282Z,57.90
2016-11-19T01:46:12.403Z,57.70
2016-11-19T01:47:11.913Z,57.80
2016-11-19T01:48:12.534Z,57.80
2016-11-19T01:49:11.694Z,57.80
2016-11-19T01:50:12.793Z,57.70
2016-11-19T01:51:12.094Z,57.70
2016-11-19T01:52:12.047Z,58.40
2016-11-19T01:53:10.466Z,is
2016-11-19T01:54:12.412Z,57.70
2016-11-19T01:55:11.836Z,57.70
2016-11-19T01:56:13.536Z,57.80
2016-11-19T01:57:12.015Z,57.80
2016-11-19T01:58:14.213Z,58.10
2016-11-19T01:59:12.582Z,58.10
2016-11-19T02:00:11.684Z,58.00
2016-11-19T02:01:13.666Z,58.10
2016-11-19T02:02:11.535Z,58.10
2016-11-19T02:03:12.141Z,57.90
2016-11-19T02:04:09.356Z,is
2016-11-19T02:05:12.780Z,57.90
2016-11-19T02:06:12.355Z,57.80
2016-11-19T02:07:12.822Z,58.00
2016-11-19T02:08:12.456Z,58.20
2016-11-19T02:09:12.871Z,58.20
2016-11-19T02:10:12.365Z,58.10
2016-11-19T02:11:12.926Z,58.00
2016-11-19T02:12:09.810Z,is
2016-11-19T02:13:12.082Z,57.80
2016-11-19T02:14:12.725Z,57.80
2016-11-19T02:15:11.736Z,57.80
2016-11-19T02:16:14.182Z,57.80
2016-11-19T02:17:10.343Z,is
2016-11-19T02:18:13.778Z,57.80
2016-11-19T02:19:12.411Z,57.70
2016-11-19T02:20:12.015Z,57.70
2016-11-19T02:21:12.790Z,57.60
2016-11-19T02:22:12.651Z,57.70
2016-11-19T02:23:11.639Z,57.70
2016-11-19T02:24:12.861Z,57.70
2016-11-19T02:25:12.583Z,57.70
2016-11-19T02:26:11.906Z,57.60
2016-11-19T02:27:11.946Z,57.60
2016-11-19T02:28:13.026Z,57.70
2016-11-19T02:29:12.608Z,57.60
2016-11-19T02:30:12.257Z,57.50
2016-11-19T02:31:12.717Z,57.60
2016-11-19T02:32:13.394Z,57.60
2016-11-19T02:33:10.946Z,is
2016-11-19T02:34:13.226Z,57.60
2016-11-19T02:35:10.118Z,is
2016-11-19T02:36:12.476Z,57.50
2016-11-19T02:37:10.237Z,is
2016-11-19T02:38:13.918Z,57.60
2016-11-19T02:39:18.287Z,57.70
2016-11-19T02:40:13.031Z,58.00
2016-11-19T02:41:12.008Z,58.20
2016-11-19T02:42:10.796Z,is
2016-11-19T02:43:14.933Z,57.90
2016-11-19T02:44:10.385Z,is
2016-11-19T02:45:13.228Z,58.00
2016-11-19T02:46:12.575Z,58.10
2016-11-19T02:47:12.247Z,58.10
2016-11-19T02:48:12.850Z,58.20
2016-11-19T02:49:11.918Z,58.20
2016-11-19T02:50:12.424Z,58.20
2016-11-19T02:51:12.008Z,58.20
2016-11-19T02:52:12.523Z,58.20
2016-11-19T02:53:12.729Z,58.10
2016-11-19T02:54:13.307Z,57.40
2016-11-19T02:55:14.037Z,58.20
2016-11-19T02:56:12.605Z,58.10
2016-11-19T02:57:09.652Z,is
2016-11-19T02:58:14.266Z,58.00
2016-11-19T02:59:12.244Z,58.30
2016-11-19T03:00:13.849Z,58.20
2016-11-19T03:01:13.310Z,58.30
2016-11-19T03:02:12.797Z,58.20
2016-11-19T03:03:12.842Z,58.20
2016-11-19T03:04:12.566Z,58.20
2016-11-19T03:05:14.224Z,58.20
2016-11-19T03:06:12.235Z,58.30
2016-11-19T03:07:12.467Z,58.30
2016-11-19T03:08:11.429Z,58.40
2016-11-19T03:09:12.074Z,58.50
2016-11-19T03:10:13.297Z,58.40
2016-11-19T03:11:13.320Z,58.40
2016-11-19T03:12:12.338Z,58.40
2016-11-19T03:13:10.262Z,is
2016-11-19T03:14:12.189Z,58.40
2016-11-19T03:15:13.262Z,58.50
2016-11-19T03:16:12.185Z,58.40
2016-11-19T03:17:15.002Z,58.50
2016-11-19T03:18:13.528Z,58.40
2016-11-19T03:19:12.335Z,58.30
2016-11-19T03:20:13.506Z,58.30
2016-11-19T03:21:12.393Z,58.30
2016-11-19T03:22:12.758Z,58.30
2016-11-19T03:23:12.987Z,58.40
2016-11-19T03:24:12.588Z,58.30
2016-11-19T03:25:12.434Z,58.80
2016-11-19T03:26:12.083Z,58.30
2016-11-19T03:27:12.823Z,58.40
2016-11-19T03:28:08.987Z,is
2016-11-19T03:29:11.947Z,58.30
2016-11-19T03:30:11.847Z,58.30
2016-11-19T03:31:12.433Z,58.50
2016-11-19T03:32:09.440Z,is
2016-11-19T03:33:10.941Z,is
2016-11-19T03:34:12.352Z,58.30
2016-11-19T03:35:13.895Z,58.40
2016-11-19T03:36:11.912Z,58.30
2016-11-19T03:37:13.278Z,58.30
2016-11-19T03:38:12.748Z,58.30
2016-11-19T03:39:09.008Z,is
2016-11-19T03:40:13.087Z,58.40
2016-11-19T03:41:12.028Z,58.30
2016-11-19T03:42:14.113Z,58.50
2016-11-19T03:43:12.607Z,58.30
2016-11-19T03:44:10.415Z,is
2016-11-19T03:45:14.956Z,58.50
2016-11-19T03:46:11.927Z,58.40
2016-11-19T03:47:11.913Z,58.40
2016-11-19T03:48:12.546Z,58.60
2016-11-19T03:49:12.504Z,58.60
2016-11-19T03:50:12.277Z,58.50
2016-11-19T03:51:12.913Z,58.50
2016-11-19T03:52:11.768Z,58.50
2016-11-19T03:53:12.140Z,58.40
2016-11-19T03:54:12.862Z,58.60
2016-11-19T03:55:12.759Z,58.50
2016-11-19T03:56:10.400Z,is
2016-11-19T03:57:13.333Z,58.60
2016-11-19T03:58:12.406Z,58.50
2016-11-19T03:59:12.427Z,58.50
2016-11-19T04:00:11.387Z,58.60
2016-11-19T04:01:12.309Z,58.40
2016-11-19T04:02:12.746Z,58.50
2016-11-19T04:03:12.387Z,58.30
2016-11-19T04:04:11.417Z,58.40
2016-11-19T04:05:09.424Z,is
2016-11-19T04:06:12.207Z,58.50
2016-11-19T04:07:18.760Z,58.60
2016-11-19T04:08:12.956Z,58.50
2016-11-19T04:09:11.967Z,58.40
2016-11-19T04:10:12.496Z,58.40
2016-11-19T04:11:11.457Z,58.40
2016-11-19T04:12:12.027Z,58.40
2016-11-19T04:13:12.490Z,58.30
2016-11-19T04:14:13.003Z,58.40
2016-11-19T04:15:12.039Z,58.30
2016-11-19T04:16:12.851Z,58.40
2016-11-19T04:17:12.602Z,58.40
2016-11-19T04:18:10.400Z,is
2016-11-19T04:19:11.687Z,58.40
2016-11-19T04:20:11.857Z,58.40
2016-11-19T04:21:13.546Z,58.40
2016-11-19T04:22:12.306Z,58.00
2016-11-19T04:23:12.126Z,58.40
2016-11-19T04:24:12.568Z,58.50
2016-11-19T04:25:12.305Z,58.50
2016-11-19T04:26:12.318Z,58.30
2016-11-19T04:27:13.095Z,58.40
2016-11-19T04:28:12.675Z,58.50
2016-11-19T04:29:10.338Z,is
2016-11-19T04:30:11.584Z,58.40
2016-11-19T04:31:12.478Z,58.40
2016-11-19T04:32:12.178Z,58.30
2016-11-19T04:33:12.876Z,58.30
2016-11-19T04:34:10.353Z,is
2016-11-19T04:35:12.697Z,58.30
2016-11-19T04:36:12.505Z,58.20
2016-11-19T04:37:12.427Z,58.30
2016-11-19T04:38:12.836Z,58.30
2016-11-19T04:39:12.654Z,58.20
2016-11-19T04:40:12.505Z,58.30
2016-11-19T04:41:12.346Z,58.20
2016-11-19T04:42:13.828Z,58.30
2016-11-19T04:43:11.699Z,58.10
2016-11-19T04:44:11.564Z,58.20
2016-11-19T04:45:10.307Z,is
2016-11-19T04:46:12.005Z,58.20
2016-11-19T04:47:12.004Z,58.20
2016-11-19T04:48:14.296Z,58.20
2016-11-19T04:49:12.934Z,58.20
2016-11-19T04:50:11.960Z,58.20
2016-11-19T04:51:12.791Z,58.20
2016-11-19T04:52:11.905Z,58.10
2016-11-19T04:53:13.779Z,58.20
2016-11-19T04:54:12.329Z,58.20
2016-11-19T04:55:12.834Z,58.10
2016-11-19T04:56:12.259Z,58.10
2016-11-19T04:57:15.003Z,58.20
2016-11-19T04:58:12.123Z,58.00
2016-11-19T04:59:12.137Z,58.10
2016-11-19T05:00:12.546Z,58.10
2016-11-19T05:01:11.620Z,58.10
2016-11-19T05:02:12.762Z,58.10
2016-11-19T05:03:12.387Z,58.00
2016-11-19T05:04:11.415Z,58.00
2016-11-19T05:05:12.148Z,58.10
2016-11-19T05:06:12.710Z,58.00
2016-11-19T05:07:11.715Z,58.00
2016-11-19T05:08:11.889Z,58.00
2016-11-19T05:09:12.673Z,58.00
2016-11-19T05:10:12.248Z,58.10
2016-11-19T05:11:12.874Z,58.10
2016-11-19T05:12:12.051Z,58.00
2016-11-19T05:13:14.437Z,58.10
2016-11-19T05:14:12.039Z,58.20
2016-11-19T05:15:12.945Z,58.10
2016-11-19T05:16:12.247Z,57.90
2016-11-19T05:17:13.829Z,58.10
2016-11-19T05:18:11.839Z,58.00
2016-11-19T05:19:12.460Z,58.00
2016-11-19T05:20:12.153Z,58.10
2016-11-19T05:21:10.857Z,is
2016-11-19T05:22:11.479Z,57.90
2016-11-19T05:23:13.168Z,58.00
2016-11-19T05:24:12.230Z,57.90
2016-11-19T05:25:16.317Z,58.00
2016-11-19T05:26:11.314Z,58.00
2016-11-19T05:27:12.938Z,58.00
2016-11-19T05:28:10.686Z,is
2016-11-19T05:29:11.910Z,57.90
2016-11-19T05:30:12.331Z,58.00
2016-11-19T05:31:10.355Z,is
2016-11-19T05:32:11.539Z,57.90
2016-11-19T05:33:14.116Z,57.80
2016-11-19T05:34:13.513Z,57.90
2016-11-19T05:35:11.388Z,57.80
2016-11-19T05:36:12.064Z,57.90
2016-11-19T05:37:12.941Z,58.00
2016-11-19T05:38:12.556Z,57.90
2016-11-19T05:39:11.639Z,57.90
2016-11-19T05:40:13.457Z,57.50
2016-11-19T05:41:11.550Z,57.80
2016-11-19T05:42:11.575Z,57.80
2016-11-19T05:43:13.111Z,57.90
2016-11-19T05:44:13.738Z,57.80
2016-11-19T05:45:12.439Z,57.90
2016-11-19T05:46:10.030Z,is
2016-11-19T05:47:12.525Z,57.90
2016-11-19T05:48:12.268Z,57.90
2016-11-19T05:49:13.850Z,57.90
2016-11-19T05:50:12.889Z,57.80
2016-11-19T05:51:12.549Z,57.90
2016-11-19T05:52:12.069Z,58.00
2016-11-19T05:53:13.344Z,57.90
2016-11-19T05:54:12.959Z,57.90
2016-11-19T05:55:12.117Z,57.90
2016-11-19T05:56:13.649Z,57.90
2016-11-19T05:57:11.600Z,57.90
2016-11-19T05:58:12.345Z,58.00
2016-11-19T05:59:13.747Z,58.00
2016-11-19T06:00:13.311Z,58.00
2016-11-19T06:01:10.747Z,is
2016-11-19T06:02:13.409Z,57.90
2016-11-19T06:03:12.134Z,57.90
2016-11-19T06:04:12.651Z,58.00
2016-11-19T06:05:12.360Z,58.00
2016-11-19T06:06:13.113Z,57.90
2016-11-19T06:07:12.528Z,57.90
2016-11-19T06:08:13.049Z,58.00
2016-11-19T06:09:13.576Z,58.00
2016-11-19T06:10:11.601Z,57.90
2016-11-19T06:11:11.618Z,57.90
2016-11-19T06:12:11.827Z,57.90
2016-11-19T06:13:11.880Z,57.90
2016-11-19T06:14:12.814Z,58.10
2016-11-19T06:15:13.209Z,58.10
2016-11-19T06:16:12.212Z,58.00
2016-11-19T06:17:12.364Z,58.00
2016-11-19T06:18:15.043Z,58.00
2016-11-19T06:19:12.244Z,57.90
2016-11-19T06:20:12.285Z,58.20
2016-11-19T06:21:12.648Z,58.10
2016-11-19T06:22:12.739Z,58.20
2016-11-19T06:23:11.807Z,58.20
2016-11-19T06:24:12.816Z,58.40
2016-11-19T06:25:12.777Z,58.40
2016-11-19T06:26:13.982Z,58.40
2016-11-19T06:27:11.926Z,58.40
2016-11-19T06:28:12.966Z,58.40
2016-11-19T06:29:11.856Z,59.00
2016-11-19T06:30:13.551Z,58.70
2016-11-19T06:31:12.227Z,58.60
2016-11-19T06:32:12.804Z,58.60
2016-11-19T06:33:12.417Z,58.40
2016-11-19T06:34:12.159Z,58.40
2016-11-19T06:35:12.953Z,58.50
2016-11-19T06:36:12.545Z,58.50
2016-11-19T06:37:13.219Z,58.40
2016-11-19T06:38:10.246Z,is
2016-11-19T06:39:12.460Z,58.40
2016-11-19T06:40:11.765Z,58.40
2016-11-19T06:41:12.778Z,58.40
2016-11-19T06:42:13.454Z,58.50
2016-11-19T06:43:11.511Z,58.30
2016-11-19T06:44:12.038Z,58.30
2016-11-19T06:45:12.141Z,58.30
2016-11-19T06:46:12.668Z,58.40
2016-11-19T06:47:11.784Z,58.30
2016-11-19T06:48:12.304Z,58.30
2016-11-19T06:49:12.254Z,58.40
2016-11-19T06:50:12.253Z,58.30
2016-11-19T06:51:12.235Z,58.30
2016-11-19T06:52:12.552Z,58.50
2016-11-19T06:53:11.686Z,58.40
2016-11-19T06:54:11.804Z,58.20
2016-11-19T06:55:12.575Z,58.30
2016-11-19T06:56:09.528Z,is
2016-11-19T06:57:11.772Z,58.20
2016-11-19T06:58:11.812Z,58.20
2016-11-19T06:59:11.984Z,58.20
2016-11-19T07:00:12.139Z,58.20
2016-11-19T07:01:12.631Z,58.20
2016-11-19T07:02:11.752Z,58.20
2016-11-19T07:03:11.743Z,58.20
2016-11-19T07:04:12.440Z,58.20
2016-11-19T07:05:12.342Z,58.20
2016-11-19T07:06:12.141Z,58.20
2016-11-19T07:07:10.822Z,is
2016-11-19T07:08:12.654Z,58.20
2016-11-19T07:09:12.572Z,58.20
2016-11-19T07:10:11.595Z,58.20
2016-11-19T07:11:11.769Z,58.20
2016-11-19T07:12:10.509Z,is
2016-11-19T07:13:12.433Z,58.30
2016-11-19T07:14:11.490Z,58.20
2016-11-19T07:15:11.998Z,58.20
2016-11-19T07:16:12.068Z,58.20
2016-11-19T07:17:12.719Z,58.30
2016-11-19T07:18:12.420Z,58.30
2016-11-19T07:19:12.977Z,58.40
2016-11-19T07:20:10.618Z,is
2016-11-19T07:21:12.526Z,58.20
2016-11-19T07:22:11.472Z,58.80
2016-11-19T07:23:11.549Z,58.80
2016-11-19T07:24:11.862Z,58.70
2016-11-19T07:25:11.893Z,58.60
2016-11-19T07:26:11.965Z,58.60
2016-11-19T07:27:12.720Z,58.60
2016-11-19T07:28:11.852Z,58.40
2016-11-19T07:29:12.445Z,58.50
2016-11-19T07:30:11.425Z,58.50
2016-11-19T07:31:12.792Z,58.50
2016-11-19T07:32:10.312Z,is
2016-11-19T07:33:12.545Z,58.50
2016-11-19T07:34:12.273Z,58.40
2016-11-19T07:35:15.308Z,58.40
2016-11-19T07:36:12.130Z,58.30
2016-11-19T07:37:12.839Z,58.80
2016-11-19T07:38:12.160Z,58.90
2016-11-19T07:39:12.626Z,58.80
2016-11-19T07:40:13.148Z,58.50
2016-11-19T07:41:12.195Z,58.70
2016-11-19T07:42:12.255Z,58.60
2016-11-19T07:43:12.839Z,58.80
2016-11-19T07:44:11.666Z,59.20
2016-11-19T07:45:08.819Z,is
2016-11-19T07:46:11.755Z,59.20
2016-11-19T07:47:12.313Z,59.70
2016-11-19T07:48:12.886Z,60.20
2016-11-19T07:49:12.545Z,59.80
2016-11-19T07:50:11.451Z,60.40
2016-11-19T07:51:12.475Z,60.60
2016-11-19T07:52:11.860Z,60.70
2016-11-19T07:53:10.525Z,is
2016-11-19T07:54:13.357Z,58.70
2016-11-19T07:55:12.245Z,58.40
2016-11-19T07:56:13.721Z,58.10
2016-11-19T07:57:12.386Z,57.70
2016-11-19T07:58:13.132Z,58.10
2016-11-19T07:59:12.276Z,58.60
2016-11-19T08:00:10.839Z,is
2016-11-19T08:01:14.707Z,59.30
2016-11-19T08:02:11.922Z,59.50
2016-11-19T08:03:09.815Z,is
2016-11-19T08:04:13.748Z,59.80
2016-11-19T08:05:13.410Z,59.90
2016-11-19T08:06:10.213Z,is
2016-11-19T08:07:12.240Z,59.90
2016-11-19T08:08:12.606Z,59.90
2016-11-19T08:09:12.505Z,59.90
2016-11-19T08:10:11.692Z,59.90
2016-11-19T08:11:12.222Z,59.90
2016-11-19T08:12:12.584Z,59.90
2016-11-19T08:13:12.037Z,59.70
2016-11-19T08:14:12.956Z,59.70
2016-11-19T08:15:11.845Z,59.70
2016-11-19T08:16:10.274Z,is
2016-11-19T08:17:11.807Z,59.60
2016-11-19T08:18:12.228Z,59.70
2016-11-19T08:19:12.149Z,59.50
2016-11-19T08:20:12.716Z,59.70
2016-11-19T08:21:10.359Z,is
2016-11-19T08:22:12.219Z,59.50
2016-11-19T08:23:12.740Z,59.50
2016-11-19T08:24:12.218Z,59.60
2016-11-19T08:25:12.245Z,59.40
2016-11-19T08:26:12.746Z,59.40
2016-11-19T08:27:12.378Z,59.50
2016-11-19T08:28:12.236Z,59.40
2016-11-19T08:29:12.776Z,59.40
2016-11-19T08:30:11.838Z,59.30
2016-11-19T08:31:11.795Z,57.10
2016-11-19T08:32:13.224Z,56.10
2016-11-19T08:33:12.846Z,56.00
2016-11-19T08:34:13.419Z,56.00
2016-11-19T08:35:13.083Z,55.40
2016-11-19T08:36:12.115Z,54.70
2016-11-19T08:37:13.876Z,56.10
2016-11-19T08:38:13.626Z,57.10
2016-11-19T08:39:11.541Z,51.20
2016-11-19T08:40:11.520Z,49.50
2016-11-19T08:41:11.604Z,49.80
2016-11-19T08:42:11.677Z,49.80
2016-11-19T08:43:11.799Z,49.20
2016-11-19T08:44:12.375Z,49.70
2016-11-19T08:45:12.305Z,50.60
2016-11-19T08:46:12.297Z,50.50
2016-11-19T08:47:12.356Z,50.60
2016-11-19T08:48:19.746Z,51.10
2016-11-19T08:49:12.312Z,52.70
2016-11-19T08:50:13.016Z,53.50
2016-11-19T08:51:12.783Z,52.90
2016-11-19T08:52:11.799Z,52.30
2016-11-19T08:53:10.686Z,is
2016-11-19T08:54:11.788Z,51.70
2016-11-19T08:55:12.387Z,52.20
2016-11-19T08:56:11.339Z,52.10
2016-11-19T08:57:12.798Z,53.40
2016-11-19T08:58:12.349Z,53.00
2016-11-19T08:59:12.812Z,53.60
2016-11-19T09:00:12.468Z,53.70
2016-11-19T09:01:12.757Z,53.50
2016-11-19T09:02:11.697Z,53.50
2016-11-19T09:03:11.688Z,53.40
2016-11-19T09:04:12.323Z,53.50
2016-11-19T09:05:12.875Z,53.50
2016-11-19T09:06:09.117Z,is
2016-11-19T09:07:12.155Z,53.60
2016-11-19T09:08:12.076Z,54.40
2016-11-19T09:09:12.123Z,54.90
2016-11-19T09:10:12.471Z,54.10
2016-11-19T09:11:11.352Z,54.10
2016-11-19T09:12:15.969Z,54.80
2016-11-19T09:13:12.791Z,55.00
2016-11-19T09:14:12.959Z,54.40
2016-11-19T09:15:11.878Z,54.50
2016-11-19T09:16:12.054Z,55.00
2016-11-19T09:17:13.860Z,55.00
2016-11-19T09:18:12.481Z,55.00
2016-11-19T09:19:10.119Z,is
2016-11-19T09:20:12.062Z,55.50
2016-11-19T09:21:11.908Z,55.30
2016-11-19T09:22:11.819Z,55.40
2016-11-19T09:23:11.783Z,55.10
2016-11-19T09:24:12.467Z,55.30
2016-11-19T09:25:11.443Z,55.50
2016-11-19T09:26:11.970Z,55.90
2016-11-19T09:27:12.948Z,56.00
2016-11-19T09:28:11.909Z,56.00
2016-11-19T09:29:11.948Z,55.70
2016-11-19T09:30:10.451Z,is
2016-11-19T09:31:12.605Z,56.00
2016-11-19T09:32:12.458Z,56.00
2016-11-19T09:33:11.350Z,55.90
2016-11-19T09:34:12.288Z,55.40
2016-11-19T09:35:12.897Z,55.50
2016-11-19T09:36:12.590Z,55.60
2016-11-19T09:37:13.339Z,55.10
2016-11-19T09:38:11.497Z,54.60
2016-11-19T09:39:12.132Z,54.70
2016-11-19T09:40:12.787Z,55.10
2016-11-19T09:41:11.780Z,55.90
2016-11-19T09:42:12.300Z,55.90
2016-11-19T09:43:15.167Z,55.60
2016-11-19T09:44:12.452Z,55.60
2016-11-19T09:45:12.005Z,55.40
2016-11-19T09:46:11.897Z,55.60
2016-11-19T09:47:10.666Z,is
2016-11-19T09:48:11.909Z,55.00
2016-11-19T09:50:11.489Z,55.70
2016-11-19T09:51:12.084Z,55.90
2016-11-19T09:52:12.109Z,55.90
2016-11-19T09:53:12.144Z,55.90
2016-11-19T09:54:12.466Z,55.90
2016-11-19T09:55:11.920Z,55.90
2016-11-19T09:56:11.760Z,55.90
2016-11-19T09:57:13.196Z,56.00
2016-11-19T09:58:11.076Z,is
2016-11-19T09:59:12.803Z,56.00
2016-11-19T10:00:11.927Z,55.90
2016-11-19T10:01:11.957Z,55.90
2016-11-19T10:02:11.853Z,55.90
2016-11-19T10:03:10.396Z,is
2016-11-19T10:04:12.325Z,55.90
2016-11-19T10:05:10.101Z,is
2016-11-19T10:06:12.341Z,56.00
2016-11-19T10:07:12.213Z,55.90
2016-11-19T10:08:12.868Z,55.90
2016-11-19T10:09:12.257Z,55.90
2016-11-19T10:10:12.307Z,56.10
2016-11-19T10:11:12.261Z,55.90
2016-11-19T10:12:14.762Z,56.00
2016-11-19T10:13:11.796Z,55.90
2016-11-19T10:14:11.833Z,55.60
2016-11-19T10:15:11.800Z,55.90
2016-11-19T10:16:11.816Z,55.90
2016-11-19T10:17:11.791Z,56.00
2016-11-19T10:18:12.428Z,56.00
2016-11-19T10:19:12.083Z,56.00
2016-11-19T10:20:18.079Z,55.90
2016-11-19T10:21:13.616Z,56.00
2016-11-19T10:22:11.569Z,55.90
2016-11-19T10:23:12.126Z,55.90
2016-11-19T10:24:12.109Z,55.90
2016-11-19T10:25:13.454Z,56.00
2016-11-19T10:26:11.687Z,55.90
2016-11-19T10:27:12.277Z,56.00
2016-11-19T10:28:12.660Z,55.90
2016-11-19T10:29:13.193Z,55.90
2016-11-19T10:30:12.953Z,56.10
2016-11-19T10:31:13.611Z,55.90
2016-11-19T10:32:11.740Z,55.90
2016-11-19T10:33:12.271Z,55.90
2016-11-19T10:34:11.586Z,55.90
2016-11-19T10:35:11.607Z,55.90
2016-11-19T10:36:11.739Z,55.90
2016-11-19T10:37:11.794Z,56.00
2016-11-19T10:38:11.726Z,56.60
2016-11-19T10:39:11.617Z,56.10
2016-11-19T10:40:11.592Z,55.90
2016-11-19T10:41:13.471Z,56.10
2016-11-19T10:42:11.474Z,56.00
2016-11-19T10:43:11.534Z,56.40
2016-11-19T10:44:12.016Z,56.10
2016-11-19T10:45:12.928Z,56.00
2016-11-19T10:46:11.906Z,55.90
2016-11-19T10:47:12.344Z,55.90
2016-11-19T10:48:12.883Z,55.90
2016-11-19T10:49:12.278Z,56.00
2016-11-19T10:50:12.154Z,56.10
2016-11-19T10:51:12.685Z,56.00
2016-11-19T10:52:11.782Z,55.90
2016-11-19T10:53:12.305Z,56.00
2016-11-19T10:54:10.772Z,is
2016-11-19T10:55:13.225Z,56.00
2016-11-19T10:56:12.232Z,54.70
2016-11-19T10:57:12.979Z,55.50
2016-11-19T10:58:12.174Z,56.00
2016-11-19T10:59:12.501Z,55.90
2016-11-19T11:00:11.541Z,56.00
2016-11-19T11:01:12.302Z,56.20
2016-11-19T11:02:12.254Z,56.50
2016-11-19T11:03:12.996Z,57.30
2016-11-19T11:04:12.416Z,58.30
2016-11-19T11:05:12.101Z,57.90
2016-11-19T11:06:12.065Z,57.60
2016-11-19T11:07:12.011Z,57.60
2016-11-19T11:08:12.731Z,57.40
2016-11-19T11:09:11.730Z,57.20
2016-11-19T11:10:12.340Z,57.40
2016-11-19T11:11:11.612Z,57.20
2016-11-19T11:12:11.652Z,56.90
2016-11-19T11:13:20.112Z,56.70
2016-11-19T11:14:12.084Z,56.50
2016-11-19T11:15:12.055Z,56.60
2016-11-19T11:16:12.674Z,57.10
2016-11-19T11:17:12.754Z,56.90
2016-11-19T11:18:11.833Z,57.00
2016-11-19T11:19:12.445Z,57.60
2016-11-19T11:20:11.463Z,57.40
2016-11-19T11:21:11.461Z,57.20
2016-11-19T11:22:11.325Z,57.40
2016-11-19T11:23:12.224Z,57.20
2016-11-19T11:24:12.774Z,57.20
2016-11-19T11:25:12.554Z,57.70
2016-11-19T11:26:12.394Z,57.40
2016-11-19T11:27:11.400Z,57.50
2016-11-19T11:28:11.991Z,57.20
2016-11-19T11:29:13.642Z,57.50
2016-11-19T11:30:11.725Z,57.30
2016-11-19T11:31:13.601Z,57.90
2016-11-19T11:32:11.623Z,57.70
2016-11-19T11:33:12.334Z,57.00
2016-11-19T11:34:12.148Z,57.70
2016-11-19T11:35:12.566Z,57.60
2016-11-19T11:36:14.283Z,57.50
2016-11-19T11:37:12.976Z,57.40
2016-11-19T11:38:11.821Z,57.20
2016-11-19T11:39:11.853Z,57.00
2016-11-19T11:40:11.927Z,57.00
2016-11-19T11:41:12.643Z,57.00
2016-11-19T11:42:13.476Z,57.00
2016-11-19T11:43:11.682Z,56.90
2016-11-19T11:44:11.564Z,56.90
2016-11-19T11:45:11.754Z,56.60
2016-11-19T11:46:12.212Z,56.40
2016-11-19T11:47:13.078Z,56.50
2016-11-19T11:48:12.013Z,56.40
2016-11-19T11:49:11.928Z,56.40
2016-11-19T11:50:12.483Z,56.60
2016-11-19T11:51:11.537Z,56.50
2016-11-19T11:52:10.068Z,is
2016-11-19T11:53:13.173Z,57.40
2016-11-19T11:54:13.096Z,57.60
2016-11-19T11:55:12.079Z,57.70
2016-11-19T11:56:13.413Z,57.80
2016-11-19T11:57:11.670Z,57.80
2016-11-19T11:58:11.781Z,58.10
2016-11-19T11:59:12.002Z,57.70
2016-11-19T12:00:11.920Z,57.80
2016-11-19T12:01:12.425Z,57.90
2016-11-19T12:02:09.985Z,is
2016-11-19T12:03:11.308Z,57.80
2016-11-19T12:04:11.418Z,58.00
2016-11-19T12:05:13.013Z,58.10
2016-11-19T12:06:12.450Z,58.30
2016-11-19T12:07:11.512Z,58.10
2016-11-19T12:08:13.454Z,58.10
2016-11-19T12:09:11.475Z,57.70
2016-11-19T12:10:11.552Z,58.00
2016-11-19T12:11:13.095Z,57.70
2016-11-19T12:12:09.251Z,is
2016-11-19T12:13:09.408Z,is
2016-11-19T12:14:12.321Z,57.90
2016-11-19T12:15:12.871Z,58.10
2016-11-19T12:16:11.838Z,58.40
2016-11-19T12:17:11.834Z,58.20
2016-11-19T12:18:12.102Z,58.10
2016-11-19T12:19:12.182Z,57.40
2016-11-19T12:20:12.139Z,57.20
2016-11-19T12:21:12.643Z,57.80
2016-11-19T12:22:11.685Z,58.20
2016-11-19T12:23:10.371Z,is
2016-11-19T12:24:11.760Z,58.30
2016-11-19T12:25:11.658Z,58.30
2016-11-19T12:26:11.743Z,58.40
2016-11-19T12:27:11.678Z,58.40
2016-11-19T12:28:11.713Z,58.30
2016-11-19T12:29:12.436Z,58.50
2016-11-19T12:30:14.173Z,58.20
2016-11-19T12:31:12.312Z,58.30
2016-11-19T12:32:10.799Z,is
2016-11-19T12:33:13.954Z,58.30
2016-11-19T12:34:12.009Z,58.30
2016-11-19T12:35:11.949Z,58.20
2016-11-19T12:36:12.260Z,58.30
2016-11-19T12:37:13.180Z,58.20
2016-11-19T12:38:13.001Z,55.60
2016-11-19T12:39:12.429Z,53.70
2016-11-19T12:40:13.177Z,55.00
2016-11-19T12:41:12.134Z,54.80
2016-11-19T12:42:12.115Z,56.20
2016-11-19T12:43:13.555Z,56.30
2016-11-19T12:44:11.564Z,57.20
2016-11-19T12:45:13.275Z,57.30
2016-11-19T12:46:12.863Z,57.60
2016-11-19T12:47:10.416Z,is
2016-11-19T12:48:11.674Z,57.70
2016-11-19T12:49:13.654Z,57.70
2016-11-19T12:50:10.124Z,is
2016-11-19T12:51:13.374Z,57.80
2016-11-19T12:52:11.766Z,57.50
2016-11-19T12:53:13.531Z,57.70
2016-11-19T12:54:11.890Z,57.40
2016-11-19T12:55:11.999Z,57.60
2016-11-19T12:56:12.541Z,57.60
2016-11-19T12:57:13.534Z,57.70
2016-11-19T12:58:11.769Z,57.50
2016-11-19T12:59:12.047Z,57.60